Archival Weather

Chicago O'Hare International

Chicago, Illinois (KORD)

Report from: Friday, December 23, 2022 2:51 PM CST
Current time: Monday, June 17, 2024 1:50 AM CDT

Current weather – Weather history – Daily summaries
Weather forecast

Present weatherBlowing snow
Temperature-18.3°C (-0.9°F)
Wind chill-30.9°C (-23.6°F)
Dew point-23.9°C (-11.0°F)
Winds 18 kts (9.3 m/s, 20.7 mph) West (270°)
Wind gusts 35 kts (18 m/s, 40.3 mph)
Peak wind 44 kts (22.6 m/s, 50.6 mph) West (280°) at 19:54
Visibility2 mi. (3.2 km)
Clouds Ceiling: Broken clouds 1,900 ft. (579 m)
Overcast 2,400 ft. (732 m)
Altimeter29.83 in.Hg (1010 mB)
Relative humidity61 %
Density altitude-4,187 ft. (-1,276 m)
Sea-level pressure101.2 kPa (1012 mB, 29.89 in.Hg)
Remarks System requires maintenance
Automated weather observing station with precipitation discriminator
Pressure rising more quickly
Flight conditions Instrument Meteorological Conditions
Raw dataKORD 232051Z 27018G35KT 2SM BLSN BKN019 OVC024 M18/M24 A2983 RMK AO2 PK WND 28044/1954 SLP121 DRSN T11831239 53003 $
An error has occurred. This application may no longer respond until reloaded. Reload 🗙